Aeroporto :
LOGIN :

Iscrizione | Disclaimer

   EN    FR    IT 

 










Sommario :    VFR   VFR Marginale   IFR   IFR Intensivo   IFR Molto Intensivo
Visibilità : 
Base nubi : 
>= 8 km
>= 3000ft
5 / 8 km
1000 / 3000 ft
1500m / 5 km
500 / 1000 ft
800 / 1500m
200 / 500 ft
< 800m
< 200 ft
Simboli :   Temporali  Nebbia  Neve Forte  Precipitazioni Forti  Vento > 20 kt
SIGMETs :   Varie  Temporali  Ghiacco  Turbolenza  Onda orograficha  Ceneri Vulcaniche






- Altitudine del aeroporto : 202 ft
- Codice IATA : LGW


EGKK - London Gatwick

ULTIMO METAR :
  • 101620Z 20017G30KT 5000 -RA BKN010 10/09 Q1008

METARs OBSOLETI :
  • 101550Z 20016KT 4800 -RA BKN010 10/09 Q1009
  • 101520Z 20014G24KT 7000 -RA BKN010 10/09 Q1009
  • 101450Z 20014KT 6000 -RA BKN007 BKN015 09/09 Q1010
  • 101420Z 20015KT 4000 -RA BKN000 09/09 Q1011 REDZ
  • 101350Z 20015KT 4500 DZ BKN008 09/09 Q1011

TAF AMD TAF EGKK
Valido dal 10 a 13 ore il 11 a 18 ore UTC


101310Z 1013/1118 19015G25KT 9999 SCT035
TEMPO 1013/1015 20020G35KT
TEMPO 1013/1023 7000 RA BKN012
PROB30
TEMPO 1013/1017 3500 DZ BKN007
BECMG 1015/1018 22020G32KT
PROB30
TEMPO 1017/1020 22025G42KT 4000 +RA BKN007
BECMG 1020/1023 27010KT
BECMG 1102/1106 21009KT
TEMPO 1114/1118 6000 SHRA
PROB30
TEMPO 1115/1118 3000 +SHRA SHRAGS BKN012CB
BECMG 1116/1118 27010KT



MetMap, La meteo Aeronautica in un colpo d'occhio ! - Copyright ORBIFLY Dicembre 2007 - Disclaimer

ORBIFLY MET'MAP TEAM :

Programmazione e sviluppo : Alexandra Zaïnal
Concezione : Baudouin d'Aumeries
Aiuto per la programmazione : Marc-Olivier Méhu
Supporto tecnico e logistico : Manuel Goepfert
Aiuto per la traduzione : Arnaldo La Scala

Contatto : metmap@orbifly.com




FONTI E CREDITI :

   NOAA